createdAt,value
2018-10-19T00:03:55.099Z,94.03
2018-10-19T00:08:38.128Z,92.10
2018-10-19T00:13:20.960Z,91.33
2018-10-19T00:18:07.401Z,90.50
2018-10-19T00:22:50.239Z,92.04
2018-10-19T00:27:33.191Z,92.58
2018-10-19T00:32:16.112Z,92.09
2018-10-19T00:37:01.019Z,92.11
2018-10-19T00:41:43.889Z,95.21
2018-10-19T00:46:27.779Z,96.40
2018-10-19T00:51:10.695Z,97.08
2018-10-19T00:55:56.890Z,97.06
2018-10-19T01:00:41.022Z,96.43
2018-10-19T01:05:23.941Z,96.32
2018-10-19T01:10:06.785Z,98.24
2018-10-19T01:14:49.677Z,97.07
2018-10-19T01:19:33.609Z,96.79
2018-10-19T01:24:16.502Z,96.63
2018-10-19T01:28:59.422Z,97.30
2018-10-19T01:33:42.304Z,97.40
2018-10-19T01:38:26.219Z,97.88
2018-10-19T01:43:09.098Z,97.77
2018-10-19T01:47:52.229Z,94.72
2018-10-19T01:52:35.134Z,97.29
2018-10-19T01:57:18.261Z,96.08
2018-10-19T02:02:01.109Z,97.60
2018-10-19T02:06:44.051Z,98.43
2018-10-19T02:11:26.918Z,98.91
2018-10-19T02:16:11.027Z,98.25
2018-10-19T02:20:53.940Z,98.11
2018-10-19T02:25:37.804Z,98.37
2018-10-19T02:30:20.676Z,95.96
2018-10-19T02:35:04.741Z,96.48
2018-10-19T02:39:47.663Z,97.34
2018-10-19T02:44:30.539Z,97.74
2018-10-19T02:49:13.551Z,96.84
2018-10-19T02:53:56.426Z,92.98
2018-10-19T02:58:41.349Z,92.00
2018-10-19T03:03:24.280Z,92.26
2018-10-19T03:08:08.740Z,91.29
2018-10-19T03:12:51.649Z,89.97
2018-10-19T03:17:35.721Z,89.72
2018-10-19T03:22:18.591Z,91.78
2018-10-19T03:27:02.540Z,92.24
2018-10-19T03:31:45.369Z,93.67
2018-10-19T03:36:28.225Z,93.76
2018-10-19T03:41:11.202Z,94.12
2018-10-19T03:45:55.056Z,95.07
2018-10-19T03:50:38.006Z,95.05
2018-10-19T03:55:21.047Z,95.18
2018-10-19T04:00:04.214Z,95.95
2018-10-19T04:04:47.289Z,95.46
2018-10-19T04:09:30.118Z,94.67
2018-10-19T04:14:13.007Z,94.98
2018-10-19T04:18:55.953Z,91.88
2018-10-19T04:23:38.782Z,90.90
2018-10-19T04:28:22.800Z,88.54
2018-10-19T04:33:06.392Z,88.76
2018-10-19T04:37:51.423Z,93.84
2018-10-19T04:42:37.429Z,92.66
2018-10-19T04:47:34.841Z,89.31
2018-10-19T04:52:17.739Z,90.27
2018-10-19T04:57:01.869Z,93.86
2018-10-19T05:01:44.781Z,90.00
2018-10-19T05:06:28.947Z,91.60
2018-10-19T05:11:11.926Z,93.19
2018-10-19T05:15:54.891Z,89.99
2018-10-19T05:20:37.834Z,89.74
2018-10-19T05:25:22.092Z,90.40
2018-10-19T05:30:06.551Z,89.60
2018-10-19T05:34:50.596Z,90.00
2018-10-19T05:39:33.553Z,90.45
2018-10-19T05:44:16.492Z,90.01
2018-10-19T05:48:59.465Z,90.64
2018-10-19T05:53:42.360Z,90.58
2018-10-19T05:58:25.492Z,89.79
2018-10-19T06:03:08.548Z,90.30
2018-10-19T06:07:51.467Z,94.66
2018-10-19T06:12:34.338Z,94.91
2018-10-19T06:17:18.242Z,94.41
2018-10-19T06:22:01.126Z,92.31
2018-10-19T06:26:47.639Z,92.17
2018-10-19T06:31:30.518Z,91.72
2018-10-19T06:36:14.263Z,92.32
2018-10-19T06:40:57.106Z,92.13
2018-10-19T06:45:41.164Z,92.17
2018-10-19T06:50:24.129Z,90.96
2018-10-19T06:55:08.930Z,91.04
2018-10-19T06:59:51.801Z,92.35
2018-10-19T07:04:34.748Z,90.60
2018-10-19T07:09:18.708Z,90.84
2018-10-19T07:14:02.753Z,90.51
2018-10-19T07:18:45.757Z,89.76
2018-10-19T07:23:28.608Z,88.71
2018-10-19T07:28:12.565Z,87.99
2018-10-19T07:32:55.376Z,88.20
2018-10-19T07:37:38.282Z,88.01
2018-10-19T07:42:21.246Z,89.32
2018-10-19T07:47:05.623Z,89.23
2018-10-19T07:51:48.450Z,90.11
2018-10-19T07:56:34.667Z,89.74
2018-10-19T08:01:17.629Z,89.60
2018-10-19T08:06:00.694Z,88.87
2018-10-19T08:10:44.019Z,89.38
2018-10-19T08:15:28.018Z,86.79
2018-10-19T08:20:11.029Z,84.73
2018-10-19T08:24:54.475Z,84.04
2018-10-19T08:29:37.344Z,82.14
2018-10-19T08:34:23.154Z,81.97
2018-10-19T08:39:08.230Z,82.12
2018-10-19T08:43:51.082Z,80.82
2018-10-19T08:48:35.162Z,79.87
2018-10-19T08:53:18.043Z,83.13
2018-10-19T08:58:02.941Z,80.75
2018-10-19T09:02:45.897Z,80.68
2018-10-19T09:07:31.372Z,82.62
2018-10-19T09:12:14.258Z,82.91
2018-10-19T09:17:00.949Z,78.94
2018-10-19T09:21:44.154Z,78.71
2018-10-19T09:26:29.024Z,76.98
2018-10-19T09:31:11.913Z,75.98
2018-10-19T09:35:58.320Z,77.30
2018-10-19T09:40:41.181Z,79.50
2018-10-19T09:45:25.157Z,78.87
2018-10-19T09:50:08.058Z,76.10
2018-10-19T09:54:51.071Z,73.81
2018-10-19T09:59:33.947Z,73.55
2018-10-19T10:04:20.380Z,75.12
2018-10-19T10:09:04.800Z,73.87
2018-10-19T10:13:47.774Z,73.21
2018-10-19T10:18:30.653Z,70.32
2018-10-19T10:23:15.229Z,69.54
2018-10-19T10:28:00.132Z,70.23
2018-10-19T10:32:43.603Z,70.87
2018-10-19T10:37:29.563Z,71.78
2018-10-19T10:42:13.079Z,69.92
2018-10-19T10:46:57.021Z,67.60
2018-10-19T10:51:39.907Z,66.40
2018-10-19T10:56:23.914Z,65.44
2018-10-19T11:01:06.837Z,65.89
2018-10-19T11:05:50.711Z,67.33
2018-10-19T11:10:33.609Z,65.77
2018-10-19T11:15:18.536Z,64.65
2018-10-19T11:20:01.420Z,65.58
2018-10-19T11:24:44.548Z,63.82
2018-10-19T11:29:27.406Z,63.22
2018-10-19T11:34:12.259Z,65.26
2018-10-19T11:38:55.150Z,66.29
2018-10-19T11:43:38.094Z,66.00
2018-10-19T11:48:21.459Z,64.42
2018-10-19T11:53:04.895Z,62.88
2018-10-19T11:57:49.763Z,61.97
2018-10-19T12:02:32.679Z,63.14
2018-10-19T12:07:16.628Z,63.83
2018-10-19T12:11:59.678Z,62.86
2018-10-19T12:16:45.851Z,62.09
2018-10-19T12:21:28.758Z,63.13
2018-10-19T12:26:15.354Z,64.00
2018-10-19T12:30:58.362Z,63.25
2018-10-19T12:35:43.119Z,63.52
2018-10-19T12:40:25.983Z,63.10
2018-10-19T12:46:18.211Z,63.33
2018-10-19T12:51:01.095Z,64.72
2018-10-19T12:55:45.066Z,66.07
2018-10-19T13:00:27.985Z,65.87
2018-10-19T13:05:11.859Z,66.38
2018-10-19T13:09:54.697Z,66.68
2018-10-19T13:14:39.715Z,66.93
2018-10-19T13:19:22.550Z,67.36
2018-10-19T13:24:05.768Z,67.22
2018-10-19T13:28:48.609Z,68.74
2018-10-19T13:33:31.843Z,68.74
2018-10-19T13:38:14.746Z,68.47
2018-10-19T13:42:59.205Z,68.28
2018-10-19T13:47:43.068Z,68.54
2018-10-19T13:52:25.973Z,67.43
2018-10-19T13:58:40.418Z,67.42
2018-10-19T14:03:26.752Z,67.97
2018-10-19T14:08:09.663Z,69.13
2018-10-19T14:12:52.523Z,68.34
2018-10-19T14:17:36.408Z,69.59
2018-10-19T14:22:19.293Z,68.62
2018-10-19T14:27:05.455Z,69.31
2018-10-19T14:31:48.359Z,69.24
2018-10-19T14:36:32.344Z,69.51
2018-10-19T14:41:15.244Z,70.55
2018-10-19T14:45:59.141Z,71.30
2018-10-19T14:50:42.097Z,72.37
2018-10-19T14:55:26.767Z,75.88
2018-10-19T15:00:12.338Z,76.81
2018-10-19T15:04:56.382Z,77.45
2018-10-19T15:09:39.284Z,77.88
2018-10-19T15:14:23.103Z,78.15
2018-10-19T15:19:05.980Z,77.96
2018-10-19T15:23:51.967Z,78.35
2018-10-19T15:28:34.831Z,78.68
2018-10-19T15:33:17.755Z,78.17
2018-10-19T15:38:00.614Z,79.22
2018-10-19T15:42:43.499Z,79.53
2018-10-19T15:47:30.134Z,77.76
2018-10-19T15:52:13.059Z,75.86
2018-10-19T15:56:58.114Z,75.94
2018-10-19T16:01:40.961Z,76.08
2018-10-19T16:06:25.069Z,80.50
2018-10-19T16:11:09.771Z,78.62
2018-10-19T16:15:56.300Z,77.01
2018-10-19T16:20:40.146Z,78.62
2018-10-19T16:25:23.393Z,75.80
2018-10-19T16:30:07.983Z,80.22
2018-10-19T16:34:51.871Z,77.18
2018-10-19T16:39:37.528Z,78.50
2018-10-19T16:44:22.246Z,80.75
2018-10-19T16:49:11.758Z,79.89
2018-10-19T16:53:56.835Z,77.19
2018-10-19T16:58:45.485Z,77.66
2018-10-19T17:03:29.192Z,80.72
2018-10-19T17:08:12.155Z,79.93
2018-10-19T17:12:56.216Z,77.67
2018-10-19T17:17:39.165Z,76.90
2018-10-19T17:22:22.099Z,77.80
2018-10-19T17:27:05.495Z,79.16
2018-10-19T17:31:48.427Z,77.86
2018-10-19T17:36:32.375Z,77.99
2018-10-19T17:41:15.363Z,76.92
2018-10-19T17:45:59.395Z,78.13
2018-10-19T17:50:43.012Z,77.04
2018-10-19T17:55:29.293Z,78.56
2018-10-19T18:00:13.177Z,78.85
2018-10-19T18:05:06.795Z,79.66
2018-10-19T18:09:54.931Z,80.67
2018-10-19T18:14:37.967Z,78.92
2018-10-19T18:19:20.844Z,79.50
2018-10-19T18:24:05.493Z,81.00
2018-10-19T18:28:48.395Z,79.66
2018-10-19T18:33:32.158Z,80.44
2018-10-19T18:38:15.127Z,79.01
2018-10-19T18:42:58.101Z,81.16
2018-10-19T18:47:41.003Z,81.68
2018-10-19T18:52:25.132Z,79.27
2018-10-19T18:59:56.354Z,79.64
2018-10-19T19:04:39.247Z,82.60
2018-10-19T19:09:22.195Z,80.17
2018-10-19T19:14:05.516Z,79.40
2018-10-19T19:18:48.551Z,79.91
2018-10-19T19:23:35.920Z,79.58
2018-10-19T19:28:18.862Z,79.73
2018-10-19T19:33:07.267Z,82.81
2018-10-19T19:37:50.268Z,82.47
2018-10-19T19:42:38.623Z,82.61
2018-10-19T19:49:33.934Z,81.24
2018-10-19T19:54:16.956Z,83.34
2018-10-19T19:58:59.890Z,84.65
2018-10-19T20:03:43.038Z,82.27
2018-10-19T20:08:25.923Z,81.43
2018-10-19T20:13:09.077Z,80.68
2018-10-19T20:17:51.935Z,82.72
2018-10-19T20:22:34.819Z,83.09
2018-10-19T20:27:17.693Z,81.78
2018-10-19T20:32:00.578Z,84.10
2018-10-19T20:36:44.724Z,83.12
2018-10-19T20:41:27.724Z,83.67
2018-10-19T20:46:11.771Z,82.36
2018-10-19T20:50:54.674Z,80.90
2018-10-19T20:55:37.839Z,80.92
2018-10-19T21:00:20.723Z,79.52
2018-10-19T21:05:05.859Z,79.59
2018-10-19T21:09:48.766Z,78.76
2018-10-19T21:14:31.849Z,79.12
2018-10-19T21:19:22.757Z,80.72
2018-10-19T21:24:06.076Z,84.04
2018-10-19T21:30:18.590Z,82.69
2018-10-19T21:35:02.650Z,81.72
2018-10-19T21:39:45.735Z,79.37
2018-10-19T21:44:29.055Z,80.05
2018-10-19T21:49:12.142Z,80.13
2018-10-19T21:53:55.358Z,82.27
2018-10-19T21:58:38.831Z,83.56
2018-10-19T22:03:21.962Z,82.71
2018-10-19T22:08:05.735Z,80.51
2018-10-19T22:12:49.832Z,82.89
2018-10-19T22:17:32.854Z,82.34
2018-10-19T22:22:15.818Z,83.71
2018-10-19T22:26:58.871Z,83.14
2018-10-19T22:31:41.816Z,81.75
2018-10-19T22:36:26.023Z,80.93
2018-10-19T22:41:09.110Z,79.85
2018-10-19T22:45:53.546Z,80.49
2018-10-19T22:50:36.532Z,80.90
2018-10-19T22:55:19.581Z,80.12
2018-10-19T23:00:02.650Z,79.16
2018-10-19T23:04:45.921Z,79.42
2018-10-19T23:09:29.245Z,83.85
2018-10-19T23:14:12.402Z,84.03
2018-10-19T23:18:55.414Z,83.50
2018-10-19T23:23:38.703Z,81.57
2018-10-19T23:28:21.716Z,81.06
2018-10-19T23:33:05.019Z,80.83
2018-10-19T23:37:47.977Z,83.17
2018-10-19T23:42:31.178Z,83.20
2018-10-19T23:47:14.262Z,80.30
2018-10-19T23:51:57.210Z,81.82
2018-10-19T23:56:41.406Z,82.44
